createdAt,value
2018-05-23T00:01:36.739Z,13.38
2018-05-23T00:04:02.937Z,13.19
2018-05-23T00:06:29.041Z,13.11
2018-05-23T00:08:54.819Z,13.03
2018-05-23T00:11:20.563Z,13.06
2018-05-23T00:13:46.309Z,13.05
2018-05-23T00:16:12.072Z,13.02
2018-05-23T00:18:37.800Z,12.92
2018-05-23T00:21:03.566Z,12.84
2018-05-23T00:23:29.309Z,12.82
2018-05-23T00:25:55.057Z,12.84
2018-05-23T00:28:20.830Z,12.77
2018-05-23T00:30:46.572Z,12.69
2018-05-23T00:33:12.427Z,12.68
2018-05-23T00:35:38.168Z,12.84
2018-05-23T00:38:03.906Z,13.00
2018-05-23T00:40:29.648Z,13.02
2018-05-23T00:42:55.396Z,12.71
2018-05-23T00:45:21.174Z,12.67
2018-05-23T00:47:46.908Z,12.67
2018-05-23T00:50:12.695Z,12.52
2018-05-23T00:52:38.411Z,12.48
2018-05-23T00:55:16.653Z,12.44
2018-05-23T00:57:42.428Z,12.45
2018-05-23T01:00:08.194Z,12.32
2018-05-23T01:02:33.925Z,12.21
2018-05-23T01:04:59.657Z,12.21
2018-05-23T01:07:25.414Z,12.24
2018-05-23T01:09:51.147Z,12.18
2018-05-23T01:12:16.887Z,12.10
2018-05-23T01:14:42.643Z,12.10
2018-05-23T01:17:08.657Z,12.23
2018-05-23T01:19:34.429Z,12.07
2018-05-23T01:22:00.621Z,12.07
2018-05-23T01:24:26.374Z,12.01
2018-05-23T01:26:52.112Z,11.97
2018-05-23T01:29:17.832Z,12.05
2018-05-23T01:31:43.569Z,12.06
2018-05-23T01:34:09.298Z,11.94
2018-05-23T01:36:35.020Z,12.04
2018-05-23T01:39:00.766Z,12.13
2018-05-23T01:41:26.503Z,12.04
2018-05-23T01:43:52.249Z,11.95
2018-05-23T01:46:18.001Z,11.75
2018-05-23T01:48:56.166Z,11.70
2018-05-23T01:51:21.918Z,11.67
2018-05-23T01:53:48.982Z,11.65
2018-05-23T01:56:14.757Z,11.75
2018-05-23T01:58:40.494Z,11.83
2018-05-23T02:01:06.229Z,11.76
2018-05-23T02:03:31.956Z,11.71
2018-05-23T02:05:57.685Z,11.70
2018-05-23T02:08:23.404Z,11.69
2018-05-23T02:10:49.147Z,11.72
2018-05-23T02:13:14.872Z,11.63
2018-05-23T02:15:40.624Z,11.69
2018-05-23T02:18:06.357Z,11.62
2018-05-23T02:20:32.092Z,11.56
2018-05-23T02:22:57.840Z,11.57
2018-05-23T02:25:23.572Z,11.52
2018-05-23T02:27:49.310Z,11.60
2018-05-23T02:30:15.042Z,11.72
2018-05-23T02:32:40.788Z,11.57
2018-05-23T02:35:06.533Z,11.48
2018-05-23T02:37:32.312Z,11.48
2018-05-23T02:39:59.216Z,11.49
2018-05-23T02:42:25.074Z,11.50
2018-05-23T02:44:50.849Z,11.62
2018-05-23T02:47:16.591Z,11.52
2018-05-23T02:49:42.341Z,11.54
2018-05-23T02:52:09.915Z,11.80
2018-05-23T02:54:35.660Z,11.67
2018-05-23T02:57:01.429Z,11.63
2018-05-23T02:59:27.197Z,11.63
2018-05-23T03:01:53.987Z,11.49
2018-05-23T03:04:19.736Z,11.42
2018-05-23T03:06:45.476Z,11.38
2018-05-23T03:09:11.224Z,11.50
2018-05-23T03:11:36.984Z,11.57
2018-05-23T03:14:02.724Z,11.82
2018-05-23T03:16:28.489Z,11.70
2018-05-23T03:18:54.228Z,11.77
2018-05-23T03:21:19.981Z,11.58
2018-05-23T03:23:45.716Z,11.48
2018-05-23T03:26:11.457Z,11.63
2018-05-23T03:28:37.187Z,11.63
2018-05-23T03:31:02.936Z,11.60
2018-05-23T03:33:28.669Z,11.57
2018-05-23T03:35:54.421Z,11.63
2018-05-23T03:38:20.168Z,11.88
2018-05-23T03:40:45.912Z,12.08
2018-05-23T03:43:11.663Z,12.07
2018-05-23T03:45:37.409Z,11.78
2018-05-23T03:48:03.136Z,11.71
2018-05-23T03:50:28.864Z,11.74
2018-05-23T03:52:54.616Z,11.77
2018-05-23T03:55:20.407Z,11.79
2018-05-23T03:57:46.116Z,11.81
2018-05-23T04:00:24.421Z,11.90
2018-05-23T04:03:02.567Z,11.99
2018-05-23T04:05:40.734Z,12.07
2018-05-23T04:08:06.475Z,12.19
2018-05-23T04:10:32.195Z,12.24
2018-05-23T04:12:57.928Z,12.37
2018-05-23T04:15:23.693Z,12.53
2018-05-23T04:17:49.384Z,12.61
2018-05-23T04:20:15.101Z,12.58
2018-05-23T04:22:40.837Z,12.68
2018-05-23T04:25:06.552Z,12.82
2018-05-23T04:27:32.290Z,12.92
2018-05-23T04:29:58.007Z,13.00
2018-05-23T04:32:23.745Z,13.08
2018-05-23T04:34:49.508Z,13.17
2018-05-23T04:37:15.192Z,13.27
2018-05-23T04:39:40.924Z,13.26
2018-05-23T04:42:06.637Z,13.41
2018-05-23T04:44:32.371Z,13.41
2018-05-23T04:46:58.093Z,13.53
2018-05-23T04:49:23.832Z,13.62
2018-05-23T04:51:49.540Z,13.64
2018-05-23T04:54:15.271Z,13.67
2018-05-23T04:56:40.985Z,13.89
2018-05-23T04:59:06.728Z,13.97
2018-05-23T05:01:32.449Z,14.09
2018-05-23T05:03:58.190Z,14.14
2018-05-23T05:06:23.916Z,14.22
2018-05-23T05:08:49.656Z,14.32
2018-05-23T05:11:15.377Z,14.48
2018-05-23T05:13:41.164Z,14.61
2018-05-23T05:16:06.852Z,14.65
2018-05-23T05:18:32.592Z,14.70
2018-05-23T05:20:58.317Z,14.69
2018-05-23T05:23:24.064Z,14.64
2018-05-23T05:25:49.793Z,14.79
2018-05-23T05:28:15.525Z,14.88
2018-05-23T05:30:41.270Z,15.01
2018-05-23T05:33:06.993Z,15.07
2018-05-23T05:35:32.721Z,15.25
2018-05-23T05:37:58.452Z,15.33
2018-05-23T05:40:24.191Z,15.52
2018-05-23T05:42:49.912Z,15.66
2018-05-23T05:45:15.644Z,15.75
2018-05-23T05:47:41.360Z,15.75
2018-05-23T05:50:07.105Z,15.87
2018-05-23T05:52:32.818Z,16.08
2018-05-23T05:54:58.555Z,16.13
2018-05-23T05:57:24.276Z,16.17
2018-05-23T05:59:50.024Z,16.38
2018-05-23T06:02:15.753Z,16.49
2018-05-23T06:04:41.499Z,16.51
2018-05-23T06:07:07.220Z,16.76
2018-05-23T06:09:32.978Z,16.95
2018-05-23T06:11:58.705Z,17.08
2018-05-23T06:14:24.447Z,17.20
2018-05-23T06:16:50.181Z,17.31
2018-05-23T06:19:15.920Z,17.42
2018-05-23T06:21:41.639Z,17.32
2018-05-23T06:24:07.364Z,17.27
2018-05-23T06:26:33.091Z,17.55
2018-05-23T06:28:58.827Z,17.60
2018-05-23T06:31:24.563Z,17.80
2018-05-23T06:33:50.288Z,17.88
2018-05-23T06:36:16.024Z,17.82
2018-05-23T06:38:41.760Z,18.45
2018-05-23T06:41:07.504Z,18.43
2018-05-23T06:43:33.226Z,18.45
2018-05-23T06:45:58.980Z,18.48
2018-05-23T06:48:24.698Z,18.58
2018-05-23T06:50:50.445Z,19.02
2018-05-23T06:53:16.265Z,18.98
2018-05-23T06:55:42.001Z,18.76
2018-05-23T06:58:07.659Z,18.73
2018-05-23T07:00:33.393Z,19.28
2018-05-23T07:02:59.111Z,19.47
2018-05-23T07:05:24.840Z,19.34
2018-05-23T07:07:50.565Z,19.57
2018-05-23T07:10:16.296Z,19.56
2018-05-23T07:12:42.024Z,19.86
2018-05-23T07:15:07.761Z,20.16
2018-05-23T07:17:33.483Z,20.26
2018-05-23T07:19:59.213Z,20.43
2018-05-23T07:22:24.940Z,20.34
2018-05-23T07:24:50.660Z,20.87
2018-05-23T07:27:16.388Z,20.81
2018-05-23T07:29:42.121Z,20.43
2018-05-23T07:32:07.861Z,21.09
2018-05-23T07:34:33.592Z,21.47
2018-05-23T07:36:59.311Z,21.40
2018-05-23T07:39:25.040Z,21.68
2018-05-23T07:41:50.778Z,21.66
2018-05-23T07:44:16.508Z,21.91
2018-05-23T07:46:42.235Z,22.15
2018-05-23T07:49:07.958Z,22.10
2018-05-23T07:51:33.688Z,22.53
2018-05-23T07:53:59.413Z,22.37
2018-05-23T07:56:25.148Z,22.23
2018-05-23T07:58:50.871Z,22.31
2018-05-23T08:01:16.601Z,22.24
2018-05-23T08:03:42.323Z,22.04
2018-05-23T08:06:08.062Z,22.42
2018-05-23T08:08:33.783Z,22.68
2018-05-23T08:10:59.517Z,22.24
2018-05-23T08:13:25.244Z,22.41
2018-05-23T08:15:50.976Z,21.71
2018-05-23T08:18:16.693Z,22.62
2018-05-23T08:20:42.425Z,22.63
2018-05-23T08:23:08.143Z,22.57
2018-05-23T08:25:33.883Z,22.01
2018-05-23T08:27:59.602Z,22.64
2018-05-23T08:30:25.335Z,22.98
2018-05-23T08:32:51.048Z,22.55
2018-05-23T08:35:16.786Z,22.61
2018-05-23T08:37:42.516Z,23.11
2018-05-23T08:40:08.265Z,22.84
2018-05-23T08:42:34.020Z,22.93
2018-05-23T08:44:59.747Z,22.18
2018-05-23T08:47:25.475Z,22.52
2018-05-23T08:49:51.208Z,23.29
2018-05-23T08:52:16.976Z,23.32
2018-05-23T08:54:42.696Z,23.39
2018-05-23T08:57:08.424Z,23.31
2018-05-23T08:59:34.143Z,23.40
2018-05-23T09:01:59.884Z,23.75
2018-05-23T09:04:25.614Z,22.94
2018-05-23T09:06:51.345Z,23.30
2018-05-23T09:09:17.068Z,23.66
2018-05-23T09:11:42.793Z,23.48
2018-05-23T09:14:08.532Z,24.11
2018-05-23T09:16:34.285Z,23.58
2018-05-23T09:19:00.021Z,23.29
2018-05-23T09:21:25.763Z,23.71
2018-05-23T09:23:51.493Z,24.05
2018-05-23T09:26:17.245Z,23.93
2018-05-23T09:28:42.973Z,24.03
2018-05-23T09:31:08.708Z,24.37
2018-05-23T09:33:34.445Z,24.12
2018-05-23T09:36:00.183Z,23.92
2018-05-23T09:38:25.922Z,24.04
2018-05-23T09:40:51.667Z,24.60
2018-05-23T09:43:17.400Z,24.41
2018-05-23T09:45:43.157Z,24.90
2018-05-23T09:48:08.908Z,24.39
2018-05-23T09:50:34.652Z,24.42
2018-05-23T09:53:01.362Z,24.92
2018-05-23T09:55:28.634Z,24.74
2018-05-23T09:57:54.371Z,24.65
2018-05-23T10:00:24.936Z,24.99
2018-05-23T10:02:51.655Z,24.99
2018-05-23T10:05:17.389Z,25.20
2018-05-23T10:07:43.134Z,24.98
2018-05-23T10:10:08.905Z,25.07
2018-05-23T10:12:34.637Z,24.51
2018-05-23T10:15:01.120Z,24.82
2018-05-23T10:17:26.851Z,24.62
2018-05-23T10:19:52.575Z,25.52
2018-05-23T10:22:20.248Z,25.37
2018-05-23T10:24:45.976Z,25.00
2018-05-23T10:27:11.715Z,25.06
2018-05-23T10:29:37.449Z,25.16
2018-05-23T10:32:03.201Z,24.09
2018-05-23T10:34:28.933Z,24.16
2018-05-23T10:36:54.661Z,24.37
2018-05-23T10:39:20.388Z,24.42
2018-05-23T10:41:46.140Z,24.74
2018-05-23T10:44:11.884Z,23.86
2018-05-23T10:46:37.616Z,24.31
2018-05-23T10:49:03.352Z,24.98
2018-05-23T10:51:29.095Z,24.59
2018-05-23T10:53:54.824Z,24.52
2018-05-23T10:56:20.561Z,24.53
2018-05-23T10:58:46.299Z,24.24
2018-05-23T11:01:12.033Z,24.43
2018-05-23T11:03:37.778Z,24.15
2018-05-23T11:06:03.525Z,24.75
2018-05-23T11:08:29.281Z,24.76
2018-05-23T11:10:55.016Z,24.64
2018-05-23T11:13:20.960Z,25.17
2018-05-23T11:15:46.903Z,25.77
2018-05-23T11:18:12.698Z,24.53
2018-05-23T11:20:38.431Z,23.83
2018-05-23T11:23:04.186Z,24.62
2018-05-23T11:25:29.916Z,24.21
2018-05-23T11:27:55.672Z,25.10
2018-05-23T11:30:21.400Z,24.83
2018-05-23T11:32:47.940Z,24.85
2018-05-23T11:35:13.661Z,24.84
2018-05-23T11:37:39.396Z,24.89
2018-05-23T11:40:05.139Z,24.56
2018-05-23T11:42:30.877Z,24.56
2018-05-23T11:44:56.894Z,24.35
2018-05-23T11:47:23.719Z,24.42
2018-05-23T11:49:49.438Z,24.42
2018-05-23T11:52:15.230Z,24.85
2018-05-23T11:54:40.940Z,25.46
2018-05-23T11:57:06.656Z,24.89
2018-05-23T11:59:32.388Z,24.76
2018-05-23T12:01:58.240Z,24.49
2018-05-23T12:04:23.879Z,25.18
2018-05-23T12:06:49.629Z,25.05
2018-05-23T12:09:15.373Z,24.90
2018-05-23T12:11:48.164Z,24.63
2018-05-23T12:14:13.896Z,24.88
2018-05-23T12:16:39.616Z,24.54
2018-05-23T12:19:05.388Z,24.92
2018-05-23T12:21:31.080Z,25.21
2018-05-23T12:23:57.468Z,24.57
2018-05-23T12:26:23.204Z,24.50
2018-05-23T12:28:48.948Z,24.41
2018-05-23T12:31:14.668Z,25.01
2018-05-23T12:33:40.408Z,25.41
2018-05-23T12:36:06.132Z,24.98
2018-05-23T12:38:31.864Z,25.40
2018-05-23T12:40:58.474Z,25.73
2018-05-23T12:43:24.238Z,24.25
2018-05-23T12:45:50.029Z,24.25
2018-05-23T12:48:15.764Z,24.89
2018-05-23T12:50:41.521Z,25.49
2018-05-23T12:53:07.281Z,25.76
2018-05-23T12:55:33.011Z,25.40
2018-05-23T12:58:05.748Z,26.30
2018-05-23T13:00:31.473Z,25.82
2018-05-23T13:02:58.259Z,25.22
2018-05-23T13:05:23.989Z,24.90
2018-05-23T13:07:49.731Z,25.17
2018-05-23T13:10:15.460Z,24.13
2018-05-23T13:12:41.254Z,24.75
2018-05-23T13:15:06.942Z,24.08
2018-05-23T13:17:32.672Z,24.43
2018-05-23T13:19:58.566Z,25.11
2018-05-23T13:22:24.325Z,24.47
2018-05-23T13:24:50.067Z,24.94
2018-05-23T13:27:15.792Z,24.86
2018-05-23T13:29:41.543Z,25.10
2018-05-23T13:32:07.276Z,25.50
2018-05-23T13:34:33.012Z,26.17
2018-05-23T13:36:58.748Z,25.46
2018-05-23T13:39:24.478Z,24.84
2018-05-23T13:41:50.203Z,25.20
2018-05-23T13:44:15.935Z,25.04
2018-05-23T13:46:41.652Z,25.37
2018-05-23T13:49:07.385Z,25.73
2018-05-23T13:51:34.494Z,25.56
2018-05-23T13:54:00.257Z,25.82
2018-05-23T13:56:25.992Z,25.54
2018-05-23T13:58:51.812Z,25.56
2018-05-23T14:01:17.552Z,25.68
2018-05-23T14:03:43.275Z,25.95
2018-05-23T14:06:08.999Z,25.55
2018-05-23T14:08:34.732Z,25.51
2018-05-23T14:11:00.456Z,25.21
2018-05-23T14:13:26.192Z,24.51
2018-05-23T14:15:51.927Z,25.01
2018-05-23T14:18:17.664Z,25.55
2018-05-23T14:20:43.394Z,24.66
2018-05-23T14:23:09.116Z,24.41
2018-05-23T14:25:34.832Z,25.11
2018-05-23T14:28:00.552Z,25.43
2018-05-23T14:30:26.279Z,25.12
2018-05-23T14:32:52.012Z,24.87
2018-05-23T14:35:17.735Z,24.85
2018-05-23T14:37:43.465Z,24.36
2018-05-23T14:40:09.212Z,24.38
2018-05-23T14:42:34.940Z,24.17
2018-05-23T14:45:00.678Z,24.25
2018-05-23T14:47:26.433Z,24.49
2018-05-23T14:49:52.192Z,24.26
2018-05-23T14:52:17.940Z,24.41
2018-05-23T14:54:43.681Z,24.01
2018-05-23T14:57:09.404Z,23.95
2018-05-23T14:59:35.153Z,24.07
2018-05-23T15:02:00.889Z,23.66
2018-05-23T15:04:26.645Z,23.94
2018-05-23T15:06:52.376Z,24.16
2018-05-23T15:09:18.804Z,23.85
2018-05-23T15:11:43.864Z,23.73
2018-05-23T15:14:09.604Z,23.39
2018-05-23T15:16:35.355Z,23.54
2018-05-23T15:19:01.108Z,23.77
2018-05-23T15:21:26.849Z,23.68
2018-05-23T15:23:52.605Z,23.58
2018-05-23T15:26:18.335Z,23.90
2018-05-23T15:28:44.076Z,24.16
2018-05-23T15:31:09.802Z,23.83
2018-05-23T15:33:35.540Z,24.06
2018-05-23T15:36:01.306Z,23.69
2018-05-23T15:38:27.048Z,23.74
2018-05-23T15:40:52.795Z,23.73
2018-05-23T15:43:18.532Z,23.74
2018-05-23T15:45:44.284Z,23.64
2018-05-23T15:48:10.016Z,23.40
2018-05-23T15:50:35.784Z,23.47
2018-05-23T15:53:01.528Z,23.68
2018-05-23T15:55:27.289Z,23.59
2018-05-23T15:57:53.024Z,23.91
2018-05-23T16:00:18.775Z,23.25
2018-05-23T16:02:44.503Z,23.44
2018-05-23T16:05:10.272Z,23.63
2018-05-23T16:07:35.996Z,23.35
2018-05-23T16:10:01.752Z,23.70
2018-05-23T16:12:27.492Z,23.42
2018-05-23T16:14:53.268Z,23.50
2018-05-23T16:17:18.992Z,23.62
2018-05-23T16:19:44.769Z,23.68
2018-05-23T16:22:10.496Z,23.47
2018-05-23T16:24:36.298Z,23.53
2018-05-23T16:27:02.010Z,23.32
2018-05-23T16:29:27.966Z,23.34
2018-05-23T16:31:53.705Z,23.22
2018-05-23T16:34:19.467Z,23.13
2018-05-23T16:36:45.204Z,23.10
2018-05-23T16:39:10.957Z,23.12
2018-05-23T16:41:36.735Z,22.87
2018-05-23T16:44:02.483Z,22.82
2018-05-23T16:46:28.240Z,22.70
2018-05-23T16:48:53.975Z,22.66
2018-05-23T16:51:19.713Z,22.62
2018-05-23T16:53:45.466Z,22.70
2018-05-23T16:56:11.223Z,22.90
2018-05-23T16:58:36.968Z,22.83
2018-05-23T17:01:02.721Z,22.92
2018-05-23T17:03:28.457Z,22.69
2018-05-23T17:05:54.216Z,22.62
2018-05-23T17:08:19.962Z,22.57
2018-05-23T17:10:45.708Z,22.60
2018-05-23T17:13:11.444Z,22.59
2018-05-23T17:15:37.196Z,22.45
2018-05-23T17:18:02.937Z,22.52
2018-05-23T17:20:28.698Z,22.35
2018-05-23T17:22:54.464Z,22.37
2018-05-23T17:25:20.204Z,22.27
2018-05-23T17:27:45.952Z,22.30
2018-05-23T17:30:11.694Z,22.25
2018-05-23T17:32:37.429Z,22.04
2018-05-23T17:35:03.268Z,22.02
2018-05-23T17:37:29.034Z,21.96
2018-05-23T17:39:54.794Z,21.78
2018-05-23T17:42:20.528Z,21.86
2018-05-23T17:44:46.349Z,21.83
2018-05-23T17:47:12.063Z,21.80
2018-05-23T17:49:37.797Z,21.71
2018-05-23T17:52:03.543Z,21.57
2018-05-23T17:54:29.272Z,21.62
2018-05-23T17:56:55.047Z,21.52
2018-05-23T17:59:20.756Z,21.37
2018-05-23T18:01:46.530Z,21.33
2018-05-23T18:04:12.252Z,21.34
2018-05-23T18:06:38.011Z,21.30
2018-05-23T18:09:04.580Z,21.23
2018-05-23T18:11:30.325Z,21.13
2018-05-23T18:13:56.059Z,21.09
2018-05-23T18:16:21.806Z,21.00
2018-05-23T18:18:47.536Z,20.91
2018-05-23T18:21:13.320Z,20.90
2018-05-23T18:23:39.116Z,20.83
2018-05-23T18:26:04.812Z,20.81
2018-05-23T18:28:30.625Z,20.69
2018-05-23T18:30:56.293Z,20.66
2018-05-23T18:33:22.023Z,20.59
2018-05-23T18:35:47.744Z,20.50
2018-05-23T18:38:13.478Z,20.41
2018-05-23T18:40:39.219Z,20.38
2018-05-23T18:43:04.944Z,20.28
2018-05-23T18:45:30.676Z,20.23
2018-05-23T18:47:56.419Z,20.18
2018-05-23T18:50:22.162Z,20.05
2018-05-23T18:52:47.885Z,20.08
2018-05-23T18:55:13.620Z,19.96
2018-05-23T18:57:39.351Z,19.91
2018-05-23T19:00:05.085Z,19.84
2018-05-23T19:02:30.840Z,19.73
2018-05-23T19:04:56.643Z,19.70
2018-05-23T19:07:22.311Z,19.70
2018-05-23T19:09:48.048Z,19.53
2018-05-23T19:12:13.789Z,19.43
2018-05-23T19:14:39.524Z,19.30
2018-05-23T19:17:05.269Z,19.23
2018-05-23T19:19:31.112Z,19.12
2018-05-23T19:21:56.753Z,19.02
2018-05-23T19:24:22.497Z,18.97
2018-05-23T19:26:48.232Z,18.91
2018-05-23T19:29:13.972Z,18.90
2018-05-23T19:31:39.707Z,18.77
2018-05-23T19:34:05.512Z,18.62
2018-05-23T19:36:31.184Z,18.59
2018-05-23T19:38:56.933Z,18.49
2018-05-23T19:41:22.763Z,18.38
2018-05-23T19:43:48.412Z,18.38
2018-05-23T19:46:14.153Z,18.32
2018-05-23T19:48:39.879Z,18.15
2018-05-23T19:51:05.630Z,18.08
2018-05-23T19:53:31.355Z,18.01
2018-05-23T19:55:57.100Z,17.88
2018-05-23T19:58:22.827Z,17.84
2018-05-23T20:00:48.581Z,17.79
2018-05-23T20:03:14.328Z,17.68
2018-05-23T20:05:40.048Z,17.68
2018-05-23T20:08:05.884Z,17.60
2018-05-23T20:10:31.526Z,17.53
2018-05-23T20:12:57.267Z,17.49
2018-05-23T20:15:23.005Z,17.36
2018-05-23T20:17:48.752Z,17.22
2018-05-23T20:20:14.480Z,17.19
2018-05-23T20:22:40.219Z,17.21
2018-05-23T20:25:05.944Z,17.13
2018-05-23T20:27:31.709Z,17.07
2018-05-23T20:29:57.449Z,16.98
2018-05-23T20:32:23.183Z,16.92
2018-05-23T20:34:48.933Z,16.84
2018-05-23T20:37:14.672Z,16.77
2018-05-23T20:39:40.405Z,16.73
2018-05-23T20:42:06.149Z,16.65
2018-05-23T20:44:31.873Z,16.61
2018-05-23T20:46:57.625Z,16.52
2018-05-23T20:49:23.348Z,16.47
2018-05-23T20:51:49.108Z,16.37
2018-05-23T20:54:14.829Z,16.34
2018-05-23T20:56:40.565Z,16.29
2018-05-23T20:59:06.289Z,16.26
2018-05-23T21:01:32.029Z,16.24
2018-05-23T21:03:57.760Z,16.11
2018-05-23T21:06:23.485Z,16.10
2018-05-23T21:08:49.231Z,16.00
2018-05-23T21:11:14.969Z,15.97
2018-05-23T21:13:40.711Z,15.92
2018-05-23T21:16:06.440Z,15.88
2018-05-23T21:18:32.175Z,15.85
2018-05-23T21:20:57.912Z,15.92
2018-05-23T21:23:23.644Z,15.90
2018-05-23T21:25:49.368Z,15.73
2018-05-23T21:28:15.100Z,15.64
2018-05-23T21:30:40.829Z,15.55
2018-05-23T21:33:06.575Z,15.58
2018-05-23T21:35:32.307Z,15.49
2018-05-23T21:37:58.060Z,15.58
2018-05-23T21:40:23.779Z,15.61
2018-05-23T21:42:49.511Z,15.46
2018-05-23T21:45:15.238Z,15.44
2018-05-23T21:47:41.023Z,15.39
2018-05-23T21:50:06.749Z,15.30
2018-05-23T21:52:32.754Z,15.18
2018-05-23T21:55:00.470Z,15.21
2018-05-23T21:57:26.760Z,15.17
2018-05-23T21:59:52.495Z,15.06
2018-05-23T22:02:18.236Z,15.23
2018-05-23T22:04:44.236Z,15.14
2018-05-23T22:07:09.985Z,14.96
2018-05-23T22:09:35.711Z,14.85
2018-05-23T22:12:01.425Z,14.86
2018-05-23T22:14:27.160Z,14.85
2018-05-23T22:16:52.985Z,14.91
2018-05-23T22:19:18.734Z,14.86
2018-05-23T22:21:44.467Z,14.65
2018-05-23T22:24:10.211Z,14.59
2018-05-23T22:26:35.947Z,14.61
2018-05-23T22:29:01.689Z,14.79
2018-05-23T22:31:27.974Z,14.59
2018-05-23T22:33:53.728Z,14.63
2018-05-23T22:36:19.460Z,14.49
2018-05-23T22:38:45.196Z,14.49
2018-05-23T22:41:10.912Z,14.50
2018-05-23T22:43:36.653Z,14.49
2018-05-23T22:46:06.998Z,14.40
2018-05-23T22:48:32.985Z,14.33
2018-05-23T22:50:59.188Z,14.30
2018-05-23T22:53:24.955Z,14.26
2018-05-23T22:55:50.915Z,14.23
2018-05-23T22:58:16.644Z,14.25
2018-05-23T23:00:42.364Z,14.18
2018-05-23T23:03:08.099Z,14.19
2018-05-23T23:05:33.882Z,14.14
2018-05-23T23:08:01.159Z,14.08
2018-05-23T23:10:26.915Z,14.02
2018-05-23T23:12:52.656Z,13.96
2018-05-23T23:15:18.380Z,13.94
2018-05-23T23:17:44.099Z,13.95
2018-05-23T23:20:10.908Z,13.95
2018-05-23T23:22:37.515Z,13.90
2018-05-23T23:25:03.259Z,13.92
2018-05-23T23:27:28.988Z,13.83
2018-05-23T23:29:54.719Z,13.98
2018-05-23T23:32:20.440Z,14.00
2018-05-23T23:34:46.175Z,13.81
2018-05-23T23:37:12.033Z,13.65
2018-05-23T23:39:37.769Z,13.62
2018-05-23T23:42:03.893Z,13.75
2018-05-23T23:44:29.640Z,13.81
2018-05-23T23:46:55.361Z,13.68
2018-05-23T23:49:21.109Z,13.66
2018-05-23T23:51:46.825Z,13.44
2018-05-23T23:54:12.568Z,13.23
2018-05-23T23:56:38.293Z,13.16
2018-05-23T23:59:04.036Z,13.23
